Destiny — ZCTE3 — position and weather

sailwx.info

Track history (hours):
 
Tides and Currents Weather Stations Pressure Air Temp Water Temp Dewpoint Dewpoint Depression Visibility Wind Speed Wind Dir Waves Ship Positions

Destiny

Last reported at 2016-Aug-25 10:21 UTC. Time now 2016-Aug-27 11:45 UTC.
Position N 37°59' E 012°08'.

Length 37 m; draft 2.2 m.

Type: Pleasure craft. MMSI: 319864000.

Date/timePositionNaut miles runAvg speedWind from/ knotsBaromVisibWave heightAir tempDewpointWater temp
2016-Aug-25 10:21N 37°59' E 012°08'  
2016-Aug-22 14:08N 37°54' E 012°21'1017.1
2016-Aug-22 13:34N 38°01' E 012°30'0 0.3
2016-Aug-22 12:31N 38°01' E 012°30'0 0.0
2016-Aug-22 11:31N 38°01' E 012°30'0 0.0
2016-Aug-22 10:19N 38°01' E 012°30'0 0.0
2016-Aug-22 09:19N 38°01' E 012°30'0 0.1
2016-Aug-22 08:19N 38°01' E 012°30'0 0.0
2016-Aug-22 07:22N 38°01' E 012°30'0 0.0
2016-Aug-22 06:07N 38°01' E 012°30'0 0.0
2016-Aug-22 05:25N 38°01' E 012°30'0 0.0
2016-Aug-22 04:25N 38°01' E 012°30'0 0.0
2016-Aug-22 03:25N 38°01' E 012°30'0 0.0
2016-Aug-22 02:28N 38°01' E 012°30'0 0.0
2016-Aug-22 01:28N 38°01' E 012°30'0 0.0
2016-Aug-22 00:28N 38°01' E 012°30'0 0.0
2016-Aug-21 23:31N 38°01' E 012°30'0 0.0
2016-Aug-21 22:31N 38°01' E 012°30'0 0.0
2016-Aug-21 21:31N 38°01' E 012°30'0 0.0
2016-Aug-21 20:31N 38°01' E 012°30'0 0.0
2016-Aug-21 19:31N 38°01' E 012°30'0 0.0
2016-Aug-21 18:31N 38°01' E 012°30'0 0.0
2016-Aug-21 17:07N 38°01' E 012°30'0 0.0
2016-Aug-21 16:22N 38°01' E 012°30'0 0.0
2016-Aug-21 15:25N 38°01' E 012°30'0 0.0
2016-Aug-21 14:25N 38°01' E 012°30'0 0.0
2016-Aug-21 13:25N 38°01' E 012°30'0 0.0
2016-Aug-21 12:28N 38°01' E 012°30'0 0.0
2016-Aug-21 11:28N 38°01' E 012°30'0 0.0
2016-Aug-21 10:31N 38°01' E 012°30'0 0.0
2016-Aug-21 09:31N 38°01' E 012°30'0 0.0
2016-Aug-21 08:31N 38°01' E 012°30'0 0.0
2016-Aug-21 07:31N 38°01' E 012°30'0 0.0
2016-Aug-21 06:31N 38°01' E 012°30'0 0.0
2016-Aug-21 05:31N 38°01' E 012°30'0 0.0
2016-Aug-21 04:31N 38°01' E 012°30'0 0.0
2016-Aug-21 03:22N 38°01' E 012°30'0 0.0
2016-Aug-21 02:25N 38°01' E 012°30'0 0.0
2016-Aug-21 01:25N 38°01' E 012°30'0 0.0
2016-Aug-21 00:25N 38°01' E 012°30'0 0.0
2016-Aug-20 23:28N 38°01' E 012°30'0 0.0
2016-Aug-20 22:28N 38°01' E 012°30'0 0.0
2016-Aug-20 21:28N 38°01' E 012°30'0 0.0
2016-Aug-20 20:31N 38°01' E 012°30'0 0.0
2016-Aug-20 19:31N 38°01' E 012°30'0 0.0
2016-Aug-20 18:31N 38°01' E 012°30'0 0.0
2016-Aug-20 17:31N 38°01' E 012°30'0 0.0
2016-Aug-20 16:31N 38°01' E 012°30'0 0.0
2016-Aug-20 15:31N 38°01' E 012°30'0 0.0
2016-Aug-20 14:31N 38°01' E 012°30'0 0.0
2016-Aug-20 13:22N 38°01' E 012°30'0 0.0
2016-Aug-20 12:25N 38°01' E 012°30'0 0.0
2016-Aug-20 11:25N 38°01' E 012°30'0 0.0
2016-Aug-20 10:25N 38°01' E 012°30'0 0.0
2016-Aug-20 09:28N 38°01' E 012°30'0 0.5
2016-Aug-20 08:33N 38°00' E 012°30'9 0.8
2016-Aug-19 20:06N 37°56' E 012°20'3 0.2
2016-Aug-19 04:33N 37°59' E 012°21'0 0.0
2016-Aug-19 03:33N 37°59' E 012°21'0 0.0
2016-Aug-19 02:33N 37°59' E 012°21'0 0.0
2016-Aug-19 01:31N 37°59' E 012°21'0 0.0
2016-Aug-18 23:32N 37°59' E 012°21'0 0.0
2016-Aug-18 22:30N 37°59' E 012°21'0 0.0
2016-Aug-18 21:32N 37°59' E 012°21'4 0.7
2016-Aug-18 16:33N 37°56' E 012°21'0 0.0
2016-Aug-18 15:33N 37°56' E 012°21'0 0.0
2016-Aug-18 14:32N 37°56' E 012°21'0 0.0
2016-Aug-18 13:30N 37°56' E 012°21'0 0.0
2016-Aug-18 12:29N 37°56' E 012°21'0 0.0
2016-Aug-18 11:33N 37°56' E 012°21'0 0.0
2016-Aug-18 10:30N 37°56' E 012°21'0 0.3
2016-Aug-18 09:24N 37°56' E 012°22'8 9.9
2016-Aug-18 08:33N 38°01' E 012°30'0 0.0
2016-Aug-18 07:33N 38°01' E 012°30'0 0.0
2016-Aug-18 06:33N 38°01' E 012°30'0 0.0
2016-Aug-18 05:33N 38°01' E 012°30'0 0.0
2016-Aug-18 04:33N 38°01' E 012°30'0 0.0
2016-Aug-18 03:33N 38°01' E 012°30'0 0.0
2016-Aug-18 02:33N 38°01' E 012°30'0 0.0
2016-Aug-18 01:31N 38°01' E 012°30'0 0.0
2016-Aug-18 00:33N 38°01' E 012°30'0 0.0
2016-Aug-17 23:33N 38°01' E 012°30'0 0.0
2016-Aug-17 22:32N 38°01' E 012°30'0 0.0
2016-Aug-17 21:33N 38°01' E 012°30'0 0.0
2016-Aug-17 20:33N 38°01' E 012°30'0 0.0
2016-Aug-17 19:33N 38°01' E 012°30'0 0.0
2016-Aug-17 18:33N 38°01' E 012°30'0 0.0
2016-Aug-17 17:33N 38°01' E 012°30'0 0.1
2016-Aug-17 16:33N 38°01' E 012°30'9 8.5
2016-Aug-17 15:33N 37°56' E 012°21'0 0.0
2016-Aug-17 14:33N 37°56' E 012°21'0 0.0
2016-Aug-17 13:33N 37°56' E 012°21'0 0.0
2016-Aug-17 12:33N 37°56' E 012°21'4 0.1
2016-Aug-16 04:31N 37°59' E 012°21'0 0.0
2016-Aug-16 01:32N 37°59' E 012°21'0 0.0
2016-Aug-15 23:33N 37°59' E 012°21'0 0.0
2016-Aug-15 22:33N 37°59' E 012°21'0 0.0
2016-Aug-15 21:27N 37°59' E 012°21'0 0.0
2016-Aug-15 11:22N 37°59' E 012°21'  
Track history (hours):
 
Tides and Currents Weather Stations Pressure Air Temp Water Temp Dewpoint Dewpoint Depression Visibility Wind Speed Wind Dir Waves Ship Positions

Destiny

Last reported at 2016-Aug-25 10:21 UTC. Time now 2016-Aug-27 11:45 UTC.
Position N 37°59' E 012°08'.

Length 37 m; draft 2.2 m.

Type: Pleasure craft. MMSI: 319864000.

Date/timePositionNaut miles runAvg speedWind from/ knotsBaromVisibWave heightAir tempDewpointWater temp
2016-Aug-25 10:21N 37°59' E 012°08'  
2016-Aug-22 14:08N 37°54' E 012°21'1017.1
2016-Aug-22 13:34N 38°01' E 012°30'0 0.3
2016-Aug-22 12:31N 38°01' E 012°30'0 0.0
2016-Aug-22 11:31N 38°01' E 012°30'0 0.0
2016-Aug-22 10:19N 38°01' E 012°30'0 0.0
2016-Aug-22 09:19N 38°01' E 012°30'0 0.1
2016-Aug-22 08:19N 38°01' E 012°30'0 0.0
2016-Aug-22 07:22N 38°01' E 012°30'0 0.0
2016-Aug-22 06:07N 38°01' E 012°30'0 0.0
2016-Aug-22 05:25N 38°01' E 012°30'0 0.0
2016-Aug-22 04:25N 38°01' E 012°30'0 0.0
2016-Aug-22 03:25N 38°01' E 012°30'0 0.0
2016-Aug-22 02:28N 38°01' E 012°30'0 0.0
2016-Aug-22 01:28N 38°01' E 012°30'0 0.0
2016-Aug-22 00:28N 38°01' E 012°30'0 0.0
2016-Aug-21 23:31N 38°01' E 012°30'0 0.0
2016-Aug-21 22:31N 38°01' E 012°30'0 0.0
2016-Aug-21 21:31N 38°01' E 012°30'0 0.0
2016-Aug-21 20:31N 38°01' E 012°30'0 0.0
2016-Aug-21 19:31N 38°01' E 012°30'0 0.0
2016-Aug-21 18:31N 38°01' E 012°30'0 0.0
2016-Aug-21 17:07N 38°01' E 012°30'0 0.0
2016-Aug-21 16:22N 38°01' E 012°30'0 0.0
2016-Aug-21 15:25N 38°01' E 012°30'0 0.0
2016-Aug-21 14:25N 38°01' E 012°30'0 0.0
2016-Aug-21 13:25N 38°01' E 012°30'0 0.0
2016-Aug-21 12:28N 38°01' E 012°30'0 0.0
2016-Aug-21 11:28N 38°01' E 012°30'0 0.0
2016-Aug-21 10:31N 38°01' E 012°30'0 0.0
2016-Aug-21 09:31N 38°01' E 012°30'0 0.0
2016-Aug-21 08:31N 38°01' E 012°30'0 0.0
2016-Aug-21 07:31N 38°01' E 012°30'0 0.0
2016-Aug-21 06:31N 38°01' E 012°30'0 0.0
2016-Aug-21 05:31N 38°01' E 012°30'0 0.0
2016-Aug-21 04:31N 38°01' E 012°30'0 0.0
2016-Aug-21 03:22N 38°01' E 012°30'0 0.0
2016-Aug-21 02:25N 38°01' E 012°30'0 0.0
2016-Aug-21 01:25N 38°01' E 012°30'0 0.0
2016-Aug-21 00:25N 38°01' E 012°30'0 0.0
2016-Aug-20 23:28N 38°01' E 012°30'0 0.0
2016-Aug-20 22:28N 38°01' E 012°30'0 0.0
2016-Aug-20 21:28N 38°01' E 012°30'0 0.0
2016-Aug-20 20:31N 38°01' E 012°30'0 0.0
2016-Aug-20 19:31N 38°01' E 012°30'0 0.0
2016-Aug-20 18:31N 38°01' E 012°30'0 0.0
2016-Aug-20 17:31N 38°01' E 012°30'0 0.0
2016-Aug-20 16:31N 38°01' E 012°30'0 0.0
2016-Aug-20 15:31N 38°01' E 012°30'0 0.0
2016-Aug-20 14:31N 38°01' E 012°30'0 0.0
2016-Aug-20 13:22N 38°01' E 012°30'0 0.0
2016-Aug-20 12:25N 38°01' E 012°30'0 0.0
2016-Aug-20 11:25N 38°01' E 012°30'0 0.0
2016-Aug-20 10:25N 38°01' E 012°30'0 0.0
2016-Aug-20 09:28N 38°01' E 012°30'0 0.5
2016-Aug-20 08:33N 38°00' E 012°30'9 0.8
2016-Aug-19 20:06N 37°56' E 012°20'3 0.2
2016-Aug-19 04:33N 37°59' E 012°21'0 0.0
2016-Aug-19 03:33N 37°59' E 012°21'0 0.0
2016-Aug-19 02:33N 37°59' E 012°21'0 0.0
2016-Aug-19 01:31N 37°59' E 012°21'0 0.0
2016-Aug-18 23:32N 37°59' E 012°21'0 0.0
2016-Aug-18 22:30N 37°59' E 012°21'0 0.0
2016-Aug-18 21:32N 37°59' E 012°21'4 0.7
2016-Aug-18 16:33N 37°56' E 012°21'0 0.0
2016-Aug-18 15:33N 37°56' E 012°21'0 0.0
2016-Aug-18 14:32N 37°56' E 012°21'0 0.0
2016-Aug-18 13:30N 37°56' E 012°21'0 0.0
2016-Aug-18 12:29N 37°56' E 012°21'0 0.0
2016-Aug-18 11:33N 37°56' E 012°21'0 0.0
2016-Aug-18 10:30N 37°56' E 012°21'0 0.3
2016-Aug-18 09:24N 37°56' E 012°22'8 9.9
2016-Aug-18 08:33N 38°01' E 012°30'0 0.0
2016-Aug-18 07:33N 38°01' E 012°30'0 0.0
2016-Aug-18 06:33N 38°01' E 012°30'0 0.0
2016-Aug-18 05:33N 38°01' E 012°30'0 0.0
2016-Aug-18 04:33N 38°01' E 012°30'0 0.0
2016-Aug-18 03:33N 38°01' E 012°30'0 0.0
2016-Aug-18 02:33N 38°01' E 012°30'0 0.0
2016-Aug-18 01:31N 38°01' E 012°30'0 0.0
2016-Aug-18 00:33N 38°01' E 012°30'0 0.0
2016-Aug-17 23:33N 38°01' E 012°30'0 0.0
2016-Aug-17 22:32N 38°01' E 012°30'0 0.0
2016-Aug-17 21:33N 38°01' E 012°30'0 0.0
2016-Aug-17 20:33N 38°01' E 012°30'0 0.0
2016-Aug-17 19:33N 38°01' E 012°30'0 0.0
2016-Aug-17 18:33N 38°01' E 012°30'0 0.0
2016-Aug-17 17:33N 38°01' E 012°30'0 0.1
2016-Aug-17 16:33N 38°01' E 012°30'9 8.5
2016-Aug-17 15:33N 37°56' E 012°21'0 0.0
2016-Aug-17 14:33N 37°56' E 012°21'0 0.0
2016-Aug-17 13:33N 37°56' E 012°21'0 0.0
2016-Aug-17 12:33N 37°56' E 012°21'4 0.1
2016-Aug-16 04:31N 37°59' E 012°21'0 0.0
2016-Aug-16 01:32N 37°59' E 012°21'0 0.0
2016-Aug-15 23:33N 37°59' E 012°21'0 0.0
2016-Aug-15 22:33N 37°59' E 012°21'0 0.0
2016-Aug-15 21:27N 37°59' E 012°21'0 0.0
2016-Aug-15 11:22N 37°59' E 012°21'  

Dump ship's entire track history